重慶 の空港の天気 - METARとTAF

重慶江北国際空港 ( ZUCK / CKG ) - 中国 重慶市
飛行場実況気象(Metar)
観測時間10/21 00:00 CST (10/20 16:00 UTC)
風向・風速北北東 3m/s
視程10km以上
天気現象
少しの雲 雲底高度 460m
全天の4割程度の雲 雲底高度 910m
全天を覆う雲 雲底高度 1520m
気温17℃
湿度94%
気圧1019hPa
METARZUCK 201600Z 02003MPS 9999 FEW015 SCT030 OVC050 17/16 Q1019 NOSIG
過去の天気等 Google飛行場航空写真 Wunderground天気予報

過去48時間のMETAR

飛行場予報(TAF)
発表時間: 10/20 17:06 CST (10/20 09:06 UTC)
予報対象時間: 20日20時 CST ~ 21日20時 CST
風向・風速北北東 3m/s
視程5000m
天気現象弱い雨 もや
全天の4割程度の雲 雲底高度 910m
全天を覆う雲 雲底高度 1520m
21日5時 CST ~ 21日9時 CST に一時的に
天気現象しゅう雨
少しの雲 雲底高度 60m
全天の4割程度の雲 雲底高度 610m
全天を覆う雲 雲底高度 1220m
TAF ZUCK 200906Z 2012/2112 03003MPS 5000 -RA BR SCT030 OVC050 TX20/2108Z TN15/2022Z
TEMPO 2021/2101 SHRA FEW002 SCT020 OVC040